sensor_id;sensor_type;location;lat;lon;timestamp;P1;durP1;ratioP1;P2;durP2;ratioP2
31676;SDS011;18385;51.572;6.578;2023-04-15T00:00:48;7.50;;;3.90;;
31676;SDS011;18385;51.572;6.578;2023-04-15T00:03:16;7.15;;;3.60;;
31676;SDS011;18385;51.572;6.578;2023-04-15T00:05:43;7.28;;;3.45;;
31676;SDS011;18385;51.572;6.578;2023-04-15T00:08:08;5.32;;;3.65;;
31676;SDS011;18385;51.572;6.578;2023-04-15T00:10:34;5.90;;;3.55;;
31676;SDS011;18385;51.572;6.578;2023-04-15T00:13:00;5.70;;;3.22;;
31676;SDS011;18385;51.572;6.578;2023-04-15T00:15:26;15.80;;;3.90;;
31676;SDS011;18385;51.572;6.578;2023-04-15T00:17:52;6.72;;;3.45;;
31676;SDS011;18385;51.572;6.578;2023-04-15T00:20:18;8.07;;;3.75;;
31676;SDS011;18385;51.572;6.578;2023-04-15T00:22:44;8.02;;;3.67;;
31676;SDS011;18385;51.572;6.578;2023-04-15T00:25:10;5.93;;;3.40;;
31676;SDS011;18385;51.572;6.578;2023-04-15T00:27:36;7.22;;;3.38;;
31676;SDS011;18385;51.572;6.578;2023-04-15T00:30:02;9.48;;;3.80;;
31676;SDS011;18385;51.572;6.578;2023-04-15T00:32:29;6.15;;;3.72;;
31676;SDS011;18385;51.572;6.578;2023-04-15T00:34:55;9.85;;;3.97;;
31676;SDS011;18385;51.572;6.578;2023-04-15T00:37:22;7.40;;;3.90;;
31676;SDS011;18385;51.572;6.578;2023-04-15T00:39:47;10.25;;;4.50;;
31676;SDS011;18385;51.572;6.578;2023-04-15T00:42:13;9.88;;;4.07;;
31676;SDS011;18385;51.572;6.578;2023-04-15T00:44:39;8.65;;;4.00;;
31676;SDS011;18385;51.572;6.578;2023-04-15T00:47:05;9.57;;;4.40;;
31676;SDS011;18385;51.572;6.578;2023-04-15T00:49:31;7.55;;;4.32;;
31676;SDS011;18385;51.572;6.578;2023-04-15T00:51:57;9.27;;;4.38;;
31676;SDS011;18385;51.572;6.578;2023-04-15T00:54:22;9.50;;;4.13;;
31676;SDS011;18385;51.572;6.578;2023-04-15T00:56:48;8.43;;;3.78;;
31676;SDS011;18385;51.572;6.578;2023-04-15T00:59:14;7.78;;;3.95;;
31676;SDS011;18385;51.572;6.578;2023-04-15T01:01:41;6.90;;;3.83;;
31676;SDS011;18385;51.572;6.578;2023-04-15T01:04:08;6.65;;;3.97;;
31676;SDS011;18385;51.572;6.578;2023-04-15T01:06:35;8.05;;;4.03;;
31676;SDS011;18385;51.572;6.578;2023-04-15T01:09:01;7.13;;;4.00;;
31676;SDS011;18385;51.572;6.578;2023-04-15T01:11:27;8.40;;;3.85;;
31676;SDS011;18385;51.572;6.578;2023-04-15T01:13:54;8.85;;;3.97;;
31676;SDS011;18385;51.572;6.578;2023-04-15T01:16:23;10.80;;;4.10;;
31676;SDS011;18385;51.572;6.578;2023-04-15T01:18:48;7.03;;;3.60;;
31676;SDS011;18385;51.572;6.578;2023-04-15T01:21:14;6.63;;;3.90;;
31676;SDS011;18385;51.572;6.578;2023-04-15T01:23:40;6.43;;;4.38;;
31676;SDS011;18385;51.572;6.578;2023-04-15T01:26:08;6.15;;;3.95;;
31676;SDS011;18385;51.572;6.578;2023-04-15T01:28:34;7.70;;;3.60;;
31676;SDS011;18385;51.572;6.578;2023-04-15T01:31:09;7.57;;;4.20;;
31676;SDS011;18385;51.572;6.578;2023-04-15T01:33:38;7.80;;;3.78;;
31676;SDS011;18385;51.572;6.578;2023-04-15T01:36:05;6.95;;;4.32;;
31676;SDS011;18385;51.572;6.578;2023-04-15T01:38:32;7.00;;;3.97;;
31676;SDS011;18385;51.572;6.578;2023-04-15T01:40:58;7.18;;;3.60;;
31676;SDS011;18385;51.572;6.578;2023-04-15T01:43:24;8.35;;;3.80;;
31676;SDS011;18385;51.572;6.578;2023-04-15T01:45:50;7.32;;;3.88;;
31676;SDS011;18385;51.572;6.578;2023-04-15T01:48:16;7.82;;;3.67;;
31676;SDS011;18385;51.572;6.578;2023-04-15T01:50:42;6.82;;;3.83;;
31676;SDS011;18385;51.572;6.578;2023-04-15T01:53:08;7.97;;;4.35;;
31676;SDS011;18385;51.572;6.578;2023-04-15T01:55:35;7.05;;;4.13;;
31676;SDS011;18385;51.572;6.578;2023-04-15T01:58:01;5.72;;;3.88;;
31676;SDS011;18385;51.572;6.578;2023-04-15T02:00:27;7.88;;;4.40;;
31676;SDS011;18385;51.572;6.578;2023-04-15T02:02:54;10.05;;;3.80;;
31676;SDS011;18385;51.572;6.578;2023-04-15T02:05:19;10.50;;;3.95;;
31676;SDS011;18385;51.572;6.578;2023-04-15T02:07:46;6.50;;;4.03;;
31676;SDS011;18385;51.572;6.578;2023-04-15T02:10:12;7.95;;;4.80;;
31676;SDS011;18385;51.572;6.578;2023-04-15T02:12:38;8.48;;;4.30;;
31676;SDS011;18385;51.572;6.578;2023-04-15T02:15:05;9.68;;;4.72;;
31676;SDS011;18385;51.572;6.578;2023-04-15T02:17:34;6.90;;;4.15;;
31676;SDS011;18385;51.572;6.578;2023-04-15T02:20:01;7.93;;;4.50;;
31676;SDS011;18385;51.572;6.578;2023-04-15T02:22:30;8.65;;;4.13;;
31676;SDS011;18385;51.572;6.578;2023-04-15T02:24:56;11.95;;;4.82;;
31676;SDS011;18385;51.572;6.578;2023-04-15T02:27:22;12.63;;;5.18;;
31676;SDS011;18385;51.572;6.578;2023-04-15T02:29:48;9.68;;;4.75;;
31676;SDS011;18385;51.572;6.578;2023-04-15T02:32:17;8.20;;;4.77;;
31676;SDS011;18385;51.572;6.578;2023-04-15T02:34:45;10.02;;;5.07;;
31676;SDS011;18385;51.572;6.578;2023-04-15T02:37:11;9.82;;;4.90;;
31676;SDS011;18385;51.572;6.578;2023-04-15T02:39:37;10.35;;;4.82;;
31676;SDS011;18385;51.572;6.578;2023-04-15T02:42:03;7.72;;;4.32;;
31676;SDS011;18385;51.572;6.578;2023-04-15T02:44:30;10.60;;;4.90;;
31676;SDS011;18385;51.572;6.578;2023-04-15T02:47:00;7.97;;;5.35;;
31676;SDS011;18385;51.572;6.578;2023-04-15T02:49:26;10.40;;;5.40;;
31676;SDS011;18385;51.572;6.578;2023-04-15T02:51:54;8.18;;;4.13;;
31676;SDS011;18385;51.572;6.578;2023-04-15T02:54:20;9.05;;;4.78;;
31676;SDS011;18385;51.572;6.578;2023-04-15T02:56:50;11.57;;;5.05;;
31676;SDS011;18385;51.572;6.578;2023-04-15T02:59:19;12.77;;;5.05;;
31676;SDS011;18385;51.572;6.578;2023-04-15T03:01:45;7.57;;;4.50;;
31676;SDS011;18385;51.572;6.578;2023-04-15T03:04:11;7.43;;;4.72;;
31676;SDS011;18385;51.572;6.578;2023-04-15T03:06:37;8.43;;;5.05;;
31676;SDS011;18385;51.572;6.578;2023-04-15T03:09:03;9.80;;;4.88;;
31676;SDS011;18385;51.572;6.578;2023-04-15T03:11:32;8.80;;;5.00;;
31676;SDS011;18385;51.572;6.578;2023-04-15T03:13:58;11.25;;;5.65;;
31676;SDS011;18385;51.572;6.578;2023-04-15T03:16:29;8.30;;;5.15;;
31676;SDS011;18385;51.572;6.578;2023-04-15T03:18:56;8.73;;;4.90;;
31676;SDS011;18385;51.572;6.578;2023-04-15T03:21:23;11.02;;;5.30;;
31676;SDS011;18385;51.572;6.578;2023-04-15T03:23:48;9.20;;;5.18;;
31676;SDS011;18385;51.572;6.578;2023-04-15T03:26:27;11.10;;;5.53;;
31676;SDS011;18385;51.572;6.578;2023-04-15T03:28:56;8.63;;;5.13;;
31676;SDS011;18385;51.572;6.578;2023-04-15T03:31:22;8.18;;;5.05;;
31676;SDS011;18385;51.572;6.578;2023-04-15T03:33:48;9.20;;;5.70;;
31676;SDS011;18385;51.572;6.578;2023-04-15T03:36:14;8.75;;;4.97;;
31676;SDS011;18385;51.572;6.578;2023-04-15T03:38:41;9.57;;;5.40;;
31676;SDS011;18385;51.572;6.578;2023-04-15T03:41:07;9.48;;;5.25;;
31676;SDS011;18385;51.572;6.578;2023-04-15T03:43:33;11.45;;;5.18;;
31676;SDS011;18385;51.572;6.578;2023-04-15T03:45:59;9.93;;;5.35;;
31676;SDS011;18385;51.572;6.578;2023-04-15T03:48:25;13.85;;;5.78;;
31676;SDS011;18385;51.572;6.578;2023-04-15T03:50:51;9.40;;;5.50;;
31676;SDS011;18385;51.572;6.578;2023-04-15T03:53:16;10.05;;;5.43;;
31676;SDS011;18385;51.572;6.578;2023-04-15T03:55:42;9.13;;;5.47;;
31676;SDS011;18385;51.572;6.578;2023-04-15T03:58:08;9.38;;;5.40;;
31676;SDS011;18385;51.572;6.578;2023-04-15T04:00:37;9.02;;;5.18;;
31676;SDS011;18385;51.572;6.578;2023-04-15T04:03:03;10.13;;;5.53;;
31676;SDS011;18385;51.572;6.578;2023-04-15T04:05:29;10.07;;;5.05;;
31676;SDS011;18385;51.572;6.578;2023-04-15T04:07:55;10.90;;;5.53;;
31676;SDS011;18385;51.572;6.578;2023-04-15T04:10:21;10.35;;;5.80;;
31676;SDS011;18385;51.572;6.578;2023-04-15T04:12:48;11.05;;;5.88;;
31676;SDS011;18385;51.572;6.578;2023-04-15T04:15:13;11.45;;;6.20;;
31676;SDS011;18385;51.572;6.578;2023-04-15T04:17:40;9.80;;;5.20;;
31676;SDS011;18385;51.572;6.578;2023-04-15T04:20:05;12.38;;;5.90;;
31676;SDS011;18385;51.572;6.578;2023-04-15T04:22:36;10.45;;;5.53;;
31676;SDS011;18385;51.572;6.578;2023-04-15T04:25:05;10.13;;;5.28;;
31676;SDS011;18385;51.572;6.578;2023-04-15T04:27:32;8.32;;;5.03;;
31676;SDS011;18385;51.572;6.578;2023-04-15T04:29:58;10.35;;;6.03;;
31676;SDS011;18385;51.572;6.578;2023-04-15T04:32:24;12.65;;;6.38;;
31676;SDS011;18385;51.572;6.578;2023-04-15T04:34:50;9.55;;;5.60;;
31676;SDS011;18385;51.572;6.578;2023-04-15T04:37:16;9.60;;;5.53;;
31676;SDS011;18385;51.572;6.578;2023-04-15T04:39:41;10.40;;;5.30;;
31676;SDS011;18385;51.572;6.578;2023-04-15T04:42:07;13.38;;;5.57;;
31676;SDS011;18385;51.572;6.578;2023-04-15T04:44:33;8.55;;;5.20;;
31676;SDS011;18385;51.572;6.578;2023-04-15T04:46:58;10.20;;;5.43;;
31676;SDS011;18385;51.572;6.578;2023-04-15T04:49:24;9.70;;;5.22;;
31676;SDS011;18385;51.572;6.578;2023-04-15T04:51:50;9.93;;;6.10;;
31676;SDS011;18385;51.572;6.578;2023-04-15T04:54:16;12.30;;;6.00;;
31676;SDS011;18385;51.572;6.578;2023-04-15T04:56:41;11.18;;;6.22;;
31676;SDS011;18385;51.572;6.578;2023-04-15T04:59:07;11.48;;;5.65;;
31676;SDS011;18385;51.572;6.578;2023-04-15T05:01:33;10.73;;;5.82;;
31676;SDS011;18385;51.572;6.578;2023-04-15T05:03:59;11.52;;;5.93;;
31676;SDS011;18385;51.572;6.578;2023-04-15T05:06:25;9.45;;;5.53;;
31676;SDS011;18385;51.572;6.578;2023-04-15T05:08:51;11.52;;;5.72;;
31676;SDS011;18385;51.572;6.578;2023-04-15T05:11:17;11.50;;;5.40;;
31676;SDS011;18385;51.572;6.578;2023-04-15T05:13:43;10.18;;;5.65;;
31676;SDS011;18385;51.572;6.578;2023-04-15T05:16:08;10.45;;;5.72;;
31676;SDS011;18385;51.572;6.578;2023-04-15T05:18:34;10.82;;;6.28;;
31676;SDS011;18385;51.572;6.578;2023-04-15T05:21:00;10.70;;;5.15;;
31676;SDS011;18385;51.572;6.578;2023-04-15T05:23:26;9.48;;;5.55;;
31676;SDS011;18385;51.572;6.578;2023-04-15T05:25:52;12.85;;;5.80;;
31676;SDS011;18385;51.572;6.578;2023-04-15T05:28:18;12.05;;;5.60;;
31676;SDS011;18385;51.572;6.578;2023-04-15T05:30:43;10.32;;;6.30;;
31676;SDS011;18385;51.572;6.578;2023-04-15T05:33:09;11.10;;;6.10;;
31676;SDS011;18385;51.572;6.578;2023-04-15T05:35:35;10.20;;;6.53;;
31676;SDS011;18385;51.572;6.578;2023-04-15T05:38:01;9.90;;;6.22;;
31676;SDS011;18385;51.572;6.578;2023-04-15T05:40:26;11.65;;;5.75;;
31676;SDS011;18385;51.572;6.578;2023-04-15T05:42:52;11.50;;;6.63;;
31676;SDS011;18385;51.572;6.578;2023-04-15T05:45:17;11.95;;;6.15;;
31676;SDS011;18385;51.572;6.578;2023-04-15T05:47:43;13.27;;;6.45;;
31676;SDS011;18385;51.572;6.578;2023-04-15T05:50:09;12.18;;;6.10;;
31676;SDS011;18385;51.572;6.578;2023-04-15T05:52:35;11.07;;;6.43;;
31676;SDS011;18385;51.572;6.578;2023-04-15T05:55:01;10.00;;;6.38;;
31676;SDS011;18385;51.572;6.578;2023-04-15T05:57:26;10.48;;;6.68;;
31676;SDS011;18385;51.572;6.578;2023-04-15T05:59:52;12.85;;;7.15;;
31676;SDS011;18385;51.572;6.578;2023-04-15T06:02:18;13.93;;;7.07;;
31676;SDS011;18385;51.572;6.578;2023-04-15T06:04:43;13.27;;;6.75;;
31676;SDS011;18385;51.572;6.578;2023-04-15T06:07:09;12.05;;;7.50;;
31676;SDS011;18385;51.572;6.578;2023-04-15T06:09:35;12.45;;;7.72;;
31676;SDS011;18385;51.572;6.578;2023-04-15T06:12:00;13.95;;;8.07;;
31676;SDS011;18385;51.572;6.578;2023-04-15T06:14:27;12.75;;;7.72;;
31676;SDS011;18385;51.572;6.578;2023-04-15T06:16:52;12.95;;;7.47;;
31676;SDS011;18385;51.572;6.578;2023-04-15T06:19:18;15.00;;;8.02;;
31676;SDS011;18385;51.572;6.578;2023-04-15T06:21:44;13.95;;;7.80;;
31676;SDS011;18385;51.572;6.578;2023-04-15T06:24:10;15.57;;;8.25;;
31676;SDS011;18385;51.572;6.578;2023-04-15T06:26:36;12.95;;;7.72;;
31676;SDS011;18385;51.572;6.578;2023-04-15T06:29:02;12.57;;;7.55;;
31676;SDS011;18385;51.572;6.578;2023-04-15T06:31:28;15.30;;;8.35;;
31676;SDS011;18385;51.572;6.578;2023-04-15T06:33:54;14.18;;;8.43;;
31676;SDS011;18385;51.572;6.578;2023-04-15T06:36:20;13.18;;;7.85;;
31676;SDS011;18385;51.572;6.578;2023-04-15T06:38:46;18.27;;;8.32;;
31676;SDS011;18385;51.572;6.578;2023-04-15T06:41:12;15.07;;;7.78;;
31676;SDS011;18385;51.572;6.578;2023-04-15T06:43:38;14.50;;;8.40;;
31676;SDS011;18385;51.572;6.578;2023-04-15T06:46:04;12.18;;;7.18;;
31676;SDS011;18385;51.572;6.578;2023-04-15T06:48:29;12.02;;;7.25;;
31676;SDS011;18385;51.572;6.578;2023-04-15T06:50:55;14.02;;;8.65;;
31676;SDS011;18385;51.572;6.578;2023-04-15T06:53:23;13.85;;;7.72;;
31676;SDS011;18385;51.572;6.578;2023-04-15T06:55:52;12.93;;;7.85;;
31676;SDS011;18385;51.572;6.578;2023-04-15T06:58:17;12.13;;;7.50;;
31676;SDS011;18385;51.572;6.578;2023-04-15T07:00:43;13.70;;;7.60;;
31676;SDS011;18385;51.572;6.578;2023-04-15T07:03:09;12.50;;;8.15;;
31676;SDS011;18385;51.572;6.578;2023-04-15T07:05:37;13.90;;;8.18;;
31676;SDS011;18385;51.572;6.578;2023-04-15T07:08:03;11.40;;;6.93;;
31676;SDS011;18385;51.572;6.578;2023-04-15T07:10:29;13.20;;;7.20;;
31676;SDS011;18385;51.572;6.578;2023-04-15T07:12:55;11.93;;;7.30;;
31676;SDS011;18385;51.572;6.578;2023-04-15T07:15:21;10.82;;;7.00;;
31676;SDS011;18385;51.572;6.578;2023-04-15T07:17:47;11.93;;;7.07;;
31676;SDS011;18385;51.572;6.578;2023-04-15T07:20:13;12.23;;;7.05;;
31676;SDS011;18385;51.572;6.578;2023-04-15T07:22:39;12.63;;;6.95;;
31676;SDS011;18385;51.572;6.578;2023-04-15T07:25:05;12.93;;;6.40;;
31676;SDS011;18385;51.572;6.578;2023-04-15T07:27:31;9.98;;;6.22;;
31676;SDS011;18385;51.572;6.578;2023-04-15T07:29:57;9.10;;;5.95;;
31676;SDS011;18385;51.572;6.578;2023-04-15T07:32:23;12.88;;;5.90;;
31676;SDS011;18385;51.572;6.578;2023-04-15T07:34:48;6.88;;;5.00;;
31676;SDS011;18385;51.572;6.578;2023-04-15T07:37:14;7.97;;;5.18;;
31676;SDS011;18385;51.572;6.578;2023-04-15T07:39:40;6.75;;;3.92;;
31676;SDS011;18385;51.572;6.578;2023-04-15T07:42:06;5.72;;;3.53;;
31676;SDS011;18385;51.572;6.578;2023-04-15T07:44:32;5.70;;;3.65;;
31676;SDS011;18385;51.572;6.578;2023-04-15T07:46:58;5.55;;;3.50;;
31676;SDS011;18385;51.572;6.578;2023-04-15T07:49:24;6.22;;;3.65;;
31676;SDS011;18385;51.572;6.578;2023-04-15T07:51:50;8.65;;;5.07;;
31676;SDS011;18385;51.572;6.578;2023-04-15T07:54:15;6.50;;;4.18;;
31676;SDS011;18385;51.572;6.578;2023-04-15T07:56:41;5.93;;;3.78;;
31676;SDS011;18385;51.572;6.578;2023-04-15T07:59:07;7.22;;;3.95;;
31676;SDS011;18385;51.572;6.578;2023-04-15T08:01:33;6.22;;;4.05;;
31676;SDS011;18385;51.572;6.578;2023-04-15T08:03:59;6.15;;;3.65;;
31676;SDS011;18385;51.572;6.578;2023-04-15T08:06:25;6.20;;;4.03;;
31676;SDS011;18385;51.572;6.578;2023-04-15T08:08:51;6.38;;;4.45;;
31676;SDS011;18385;51.572;6.578;2023-04-15T08:11:18;5.90;;;3.95;;
31676;SDS011;18385;51.572;6.578;2023-04-15T08:13:45;5.70;;;3.63;;
31676;SDS011;18385;51.572;6.578;2023-04-15T08:16:21;5.55;;;3.55;;
31676;SDS011;18385;51.572;6.578;2023-04-15T08:18:49;5.63;;;3.80;;
31676;SDS011;18385;51.572;6.578;2023-04-15T08:21:16;6.60;;;4.18;;
31676;SDS011;18385;51.572;6.578;2023-04-15T08:23:43;7.07;;;4.35;;
31676;SDS011;18385;51.572;6.578;2023-04-15T08:26:14;6.60;;;3.95;;
31676;SDS011;18385;51.572;6.578;2023-04-15T08:28:40;5.93;;;3.30;;
31676;SDS011;18385;51.572;6.578;2023-04-15T08:31:06;5.78;;;3.33;;
31676;SDS011;18385;51.572;6.578;2023-04-15T08:33:33;5.30;;;3.00;;
31676;SDS011;18385;51.572;6.578;2023-04-15T08:35:59;5.70;;;3.45;;
31676;SDS011;18385;51.572;6.578;2023-04-15T08:38:25;6.40;;;4.10;;
31676;SDS011;18385;51.572;6.578;2023-04-15T08:40:50;7.97;;;3.92;;
31676;SDS011;18385;51.572;6.578;2023-04-15T08:43:23;6.88;;;3.88;;
31676;SDS011;18385;51.572;6.578;2023-04-15T08:45:52;6.47;;;3.42;;
31676;SDS011;18385;51.572;6.578;2023-04-15T08:48:19;8.35;;;4.07;;
31676;SDS011;18385;51.572;6.578;2023-04-15T08:50:45;6.70;;;3.90;;
31676;SDS011;18385;51.572;6.578;2023-04-15T08:53:12;6.93;;;3.72;;
31676;SDS011;18385;51.572;6.578;2023-04-15T08:55:41;5.68;;;3.58;;
31676;SDS011;18385;51.572;6.578;2023-04-15T08:58:12;4.18;;;2.60;;
31676;SDS011;18385;51.572;6.578;2023-04-15T09:00:41;3.83;;;2.35;;
31676;SDS011;18385;51.572;6.578;2023-04-15T09:03:07;4.30;;;2.20;;
31676;SDS011;18385;51.572;6.578;2023-04-15T09:05:34;4.78;;;2.80;;
31676;SDS011;18385;51.572;6.578;2023-04-15T09:08:01;5.35;;;2.58;;
31676;SDS011;18385;51.572;6.578;2023-04-15T09:10:27;4.88;;;2.75;;
31676;SDS011;18385;51.572;6.578;2023-04-15T09:12:54;5.55;;;3.08;;
31676;SDS011;18385;51.572;6.578;2023-04-15T09:15:20;4.93;;;3.20;;
31676;SDS011;18385;51.572;6.578;2023-04-15T09:17:48;4.53;;;3.10;;
31676;SDS011;18385;51.572;6.578;2023-04-15T09:20:15;5.25;;;3.30;;
31676;SDS011;18385;51.572;6.578;2023-04-15T09:22:43;8.65;;;4.13;;
31676;SDS011;18385;51.572;6.578;2023-04-15T09:27:58;8.57;;;4.15;;
31676;SDS011;18385;51.572;6.578;2023-04-15T09:30:26;6.95;;;4.20;;
31676;SDS011;18385;51.572;6.578;2023-04-15T09:32:59;11.43;;;4.00;;
31676;SDS011;18385;51.572;6.578;2023-04-15T09:35:35;5.07;;;2.40;;
31676;SDS011;18385;51.572;6.578;2023-04-15T09:38:02;5.20;;;2.95;;
31676;SDS011;18385;51.572;6.578;2023-04-15T09:40:32;6.57;;;4.15;;
31676;SDS011;18385;51.572;6.578;2023-04-15T09:43:02;5.03;;;3.20;;
31676;SDS011;18385;51.572;6.578;2023-04-15T09:45:29;5.93;;;3.25;;
31676;SDS011;18385;51.572;6.578;2023-04-15T09:48:13;5.25;;;3.47;;
31676;SDS011;18385;51.572;6.578;2023-04-15T09:50:41;6.90;;;3.80;;
31676;SDS011;18385;51.572;6.578;2023-04-15T09:53:14;9.45;;;6.15;;
31676;SDS011;18385;51.572;6.578;2023-04-15T09:55:45;7.40;;;4.43;;
31676;SDS011;18385;51.572;6.578;2023-04-15T10:00:45;7.45;;;3.70;;
31676;SDS011;18385;51.572;6.578;2023-04-15T10:03:13;5.13;;;3.05;;
31676;SDS011;18385;51.572;6.578;2023-04-15T10:05:47;5.75;;;3.53;;
31676;SDS011;18385;51.572;6.578;2023-04-15T10:08:18;5.90;;;3.30;;
31676;SDS011;18385;51.572;6.578;2023-04-15T10:10:46;5.15;;;2.60;;
31676;SDS011;18385;51.572;6.578;2023-04-15T10:13:16;5.22;;;2.83;;
31676;SDS011;18385;51.572;6.578;2023-04-15T10:15:44;6.20;;;3.15;;
31676;SDS011;18385;51.572;6.578;2023-04-15T10:18:15;4.68;;;3.05;;
31676;SDS011;18385;51.572;6.578;2023-04-15T10:20:43;4.97;;;3.17;;
31676;SDS011;18385;51.572;6.578;2023-04-15T10:23:10;6.93;;;3.88;;
31676;SDS011;18385;51.572;6.578;2023-04-15T10:25:37;4.97;;;3.50;;
31676;SDS011;18385;51.572;6.578;2023-04-15T10:28:03;6.50;;;3.85;;
31676;SDS011;18385;51.572;6.578;2023-04-15T10:30:31;4.28;;;2.72;;
31676;SDS011;18385;51.572;6.578;2023-04-15T10:32:58;4.28;;;2.97;;
31676;SDS011;18385;51.572;6.578;2023-04-15T10:35:28;5.45;;;3.30;;
31676;SDS011;18385;51.572;6.578;2023-04-15T10:37:56;5.28;;;3.05;;
31676;SDS011;18385;51.572;6.578;2023-04-15T10:42:55;4.70;;;2.92;;
31676;SDS011;18385;51.572;6.578;2023-04-15T10:45:23;6.68;;;3.70;;
31676;SDS011;18385;51.572;6.578;2023-04-15T10:47:56;5.07;;;3.53;;
31676;SDS011;18385;51.572;6.578;2023-04-15T10:50:25;4.65;;;3.40;;
31676;SDS011;18385;51.572;6.578;2023-04-15T10:52:54;5.18;;;3.35;;
31676;SDS011;18385;51.572;6.578;2023-04-15T10:55:23;3.88;;;2.65;;
31676;SDS011;18385;51.572;6.578;2023-04-15T10:57:59;7.60;;;2.80;;
31676;SDS011;18385;51.572;6.578;2023-04-15T11:00:26;6.75;;;3.13;;
31676;SDS011;18385;51.572;6.578;2023-04-15T11:05:21;4.90;;;3.30;;
31676;SDS011;18385;51.572;6.578;2023-04-15T11:08:06;4.93;;;3.17;;
31676;SDS011;18385;51.572;6.578;2023-04-15T11:15:26;4.43;;;2.47;;
31676;SDS011;18385;51.572;6.578;2023-04-15T11:18:10;3.47;;;2.25;;
31676;SDS011;18385;51.572;6.578;2023-04-15T11:20:41;4.47;;;2.85;;
31676;SDS011;18385;51.572;6.578;2023-04-15T11:23:11;3.80;;;2.20;;
31676;SDS011;18385;51.572;6.578;2023-04-15T11:25:38;5.20;;;2.70;;
31676;SDS011;18385;51.572;6.578;2023-04-15T11:28:04;5.45;;;2.40;;
31676;SDS011;18385;51.572;6.578;2023-04-15T11:30:35;5.15;;;2.28;;
31676;SDS011;18385;51.572;6.578;2023-04-15T11:33:08;3.78;;;2.65;;
31676;SDS011;18385;51.572;6.578;2023-04-15T11:35:36;4.50;;;3.13;;
31676;SDS011;18385;51.572;6.578;2023-04-15T11:38:03;4.72;;;3.08;;
31676;SDS011;18385;51.572;6.578;2023-04-15T11:40:30;4.00;;;2.35;;
31676;SDS011;18385;51.572;6.578;2023-04-15T11:45:49;4.50;;;2.65;;
31676;SDS011;18385;51.572;6.578;2023-04-15T11:48:20;3.55;;;2.35;;
31676;SDS011;18385;51.572;6.578;2023-04-15T11:50:57;4.57;;;2.15;;
31676;SDS011;18385;51.572;6.578;2023-04-15T11:53:41;4.13;;;2.20;;
31676;SDS011;18385;51.572;6.578;2023-04-15T11:56:15;4.38;;;2.17;;
31676;SDS011;18385;51.572;6.578;2023-04-15T11:58:43;4.75;;;2.20;;
31676;SDS011;18385;51.572;6.578;2023-04-15T12:01:10;4.50;;;2.25;;
31676;SDS011;18385;51.572;6.578;2023-04-15T12:03:42;4.32;;;2.30;;
31676;SDS011;18385;51.572;6.578;2023-04-15T12:11:47;6.80;;;2.72;;
31676;SDS011;18385;51.572;6.578;2023-04-15T12:14:27;5.35;;;3.00;;
31676;SDS011;18385;51.572;6.578;2023-04-15T12:16:56;3.90;;;2.53;;
31676;SDS011;18385;51.572;6.578;2023-04-15T12:19:26;4.60;;;2.80;;
31676;SDS011;18385;51.572;6.578;2023-04-15T12:21:58;4.38;;;2.55;;
31676;SDS011;18385;51.572;6.578;2023-04-15T12:24:25;4.85;;;2.75;;
31676;SDS011;18385;51.572;6.578;2023-04-15T12:26:52;3.78;;;2.72;;
31676;SDS011;18385;51.572;6.578;2023-04-15T12:29:19;3.72;;;2.20;;
31676;SDS011;18385;51.572;6.578;2023-04-15T12:34:16;4.57;;;2.33;;
31676;SDS011;18385;51.572;6.578;2023-04-15T12:36:43;4.70;;;2.28;;
31676;SDS011;18385;51.572;6.578;2023-04-15T12:39:09;4.07;;;2.20;;
31676;SDS011;18385;51.572;6.578;2023-04-15T12:41:35;3.72;;;1.83;;
31676;SDS011;18385;51.572;6.578;2023-04-15T12:44:00;6.97;;;2.65;;
31676;SDS011;18385;51.572;6.578;2023-04-15T12:46:26;4.25;;;1.55;;
31676;SDS011;18385;51.572;6.578;2023-04-15T12:48:52;7.18;;;2.00;;
31676;SDS011;18385;51.572;6.578;2023-04-15T12:51:18;3.88;;;1.77;;
31676;SDS011;18385;51.572;6.578;2023-04-15T12:53:47;3.08;;;1.95;;
31676;SDS011;18385;51.572;6.578;2023-04-15T12:56:14;4.65;;;1.88;;
31676;SDS011;18385;51.572;6.578;2023-04-15T12:58:41;4.18;;;1.92;;
31676;SDS011;18385;51.572;6.578;2023-04-15T13:01:07;3.10;;;1.60;;
31676;SDS011;18385;51.572;6.578;2023-04-15T13:03:32;4.18;;;1.90;;
31676;SDS011;18385;51.572;6.578;2023-04-15T13:05:58;2.95;;;1.65;;
31676;SDS011;18385;51.572;6.578;2023-04-15T13:08:26;4.88;;;1.50;;
31676;SDS011;18385;51.572;6.578;2023-04-15T13:10:52;4.85;;;1.75;;
31676;SDS011;18385;51.572;6.578;2023-04-15T13:13:17;3.35;;;1.67;;
31676;SDS011;18385;51.572;6.578;2023-04-15T13:15:43;3.60;;;2.30;;
31676;SDS011;18385;51.572;6.578;2023-04-15T13:18:10;2.80;;;1.73;;
31676;SDS011;18385;51.572;6.578;2023-04-15T13:20:35;3.60;;;2.10;;
31676;SDS011;18385;51.572;6.578;2023-04-15T13:23:01;3.83;;;2.38;;
31676;SDS011;18385;51.572;6.578;2023-04-15T13:25:27;3.00;;;1.80;;
31676;SDS011;18385;51.572;6.578;2023-04-15T13:27:52;4.53;;;1.88;;
31676;SDS011;18385;51.572;6.578;2023-04-15T13:30:18;4.68;;;2.13;;
31676;SDS011;18385;51.572;6.578;2023-04-15T13:32:44;4.22;;;1.77;;
31676;SDS011;18385;51.572;6.578;2023-04-15T13:35:10;5.97;;;1.90;;
31676;SDS011;18385;51.572;6.578;2023-04-15T13:37:36;5.85;;;2.25;;
31676;SDS011;18385;51.572;6.578;2023-04-15T13:40:02;4.78;;;2.00;;
31676;SDS011;18385;51.572;6.578;2023-04-15T13:42:27;3.47;;;1.45;;
31676;SDS011;18385;51.572;6.578;2023-04-15T13:44:53;2.30;;;1.30;;
31676;SDS011;18385;51.572;6.578;2023-04-15T13:47:19;3.15;;;1.75;;
31676;SDS011;18385;51.572;6.578;2023-04-15T13:49:45;3.25;;;1.55;;
31676;SDS011;18385;51.572;6.578;2023-04-15T13:52:11;4.68;;;1.65;;
31676;SDS011;18385;51.572;6.578;2023-04-15T13:54:37;2.67;;;1.52;;
31676;SDS011;18385;51.572;6.578;2023-04-15T13:57:03;2.38;;;1.02;;
31676;SDS011;18385;51.572;6.578;2023-04-15T13:59:29;3.13;;;1.38;;
31676;SDS011;18385;51.572;6.578;2023-04-15T14:01:55;3.80;;;1.83;;
31676;SDS011;18385;51.572;6.578;2023-04-15T14:04:20;4.50;;;1.80;;
31676;SDS011;18385;51.572;6.578;2023-04-15T14:06:46;4.07;;;1.90;;
31676;SDS011;18385;51.572;6.578;2023-04-15T14:09:13;2.75;;;1.65;;
31676;SDS011;18385;51.572;6.578;2023-04-15T14:11:38;3.92;;;1.63;;
31676;SDS011;18385;51.572;6.578;2023-04-15T14:14:04;6.25;;;1.75;;
31676;SDS011;18385;51.572;6.578;2023-04-15T14:16:33;4.32;;;2.10;;
31676;SDS011;18385;51.572;6.578;2023-04-15T14:18:59;4.63;;;1.70;;
31676;SDS011;18385;51.572;6.578;2023-04-15T14:21:26;3.72;;;1.30;;
31676;SDS011;18385;51.572;6.578;2023-04-15T14:23:56;2.10;;;1.40;;
31676;SDS011;18385;51.572;6.578;2023-04-15T14:26:22;3.92;;;1.17;;
31676;SDS011;18385;51.572;6.578;2023-04-15T14:28:48;3.00;;;1.20;;
31676;SDS011;18385;51.572;6.578;2023-04-15T14:31:14;3.25;;;1.30;;
31676;SDS011;18385;51.572;6.578;2023-04-15T14:33:40;3.92;;;1.42;;
31676;SDS011;18385;51.572;6.578;2023-04-15T14:36:06;4.45;;;1.50;;
31676;SDS011;18385;51.572;6.578;2023-04-15T14:38:33;2.13;;;1.40;;
31676;SDS011;18385;51.572;6.578;2023-04-15T14:41:04;4.03;;;1.35;;
31676;SDS011;18385;51.572;6.578;2023-04-15T14:43:33;2.83;;;1.23;;
31676;SDS011;18385;51.572;6.578;2023-04-15T14:45:59;6.75;;;1.20;;
31676;SDS011;18385;51.572;6.578;2023-04-15T14:48:26;2.38;;;1.10;;
31676;SDS011;18385;51.572;6.578;2023-04-15T14:50:52;3.95;;;1.10;;
31676;SDS011;18385;51.572;6.578;2023-04-15T14:53:18;2.30;;;0.88;;
31676;SDS011;18385;51.572;6.578;2023-04-15T14:55:44;2.45;;;1.20;;
31676;SDS011;18385;51.572;6.578;2023-04-15T14:58:10;2.13;;;1.00;;
31676;SDS011;18385;51.572;6.578;2023-04-15T15:00:37;2.35;;;1.00;;
31676;SDS011;18385;51.572;6.578;2023-04-15T15:03:06;2.28;;;1.00;;
31676;SDS011;18385;51.572;6.578;2023-04-15T15:05:39;2.90;;;1.33;;
31676;SDS011;18385;51.572;6.578;2023-04-15T15:08:07;1.55;;;0.90;;